createdAt,value
2019-01-08T00:01:53.586Z,80.75
2019-01-08T00:04:23.091Z,80.93
2019-01-08T00:06:52.283Z,80.96
2019-01-08T00:09:21.160Z,81.00
2019-01-08T00:11:50.064Z,81.15
2019-01-08T00:14:19.282Z,81.09
2019-01-08T00:16:48.390Z,80.94
2019-01-08T00:19:17.279Z,80.35
2019-01-08T00:21:46.439Z,80.06
2019-01-08T00:24:15.599Z,80.06
2019-01-08T00:26:44.473Z,80.33
2019-01-08T00:29:13.366Z,80.18
2019-01-08T00:31:42.275Z,80.58
2019-01-08T00:34:11.711Z,80.68
2019-01-08T00:36:40.589Z,80.55
2019-01-08T00:39:09.465Z,80.69
2019-01-08T00:41:38.350Z,80.43
2019-01-08T00:44:07.218Z,80.43
2019-01-08T00:46:36.176Z,79.92
2019-01-08T00:49:05.349Z,79.75
2019-01-08T00:51:34.249Z,79.44
2019-01-08T00:54:03.142Z,79.13
2019-01-08T00:56:32.024Z,79.25
2019-01-08T00:59:01.516Z,79.35
2019-01-08T01:01:30.760Z,78.92
2019-01-08T01:03:59.890Z,79.23
2019-01-08T01:06:28.770Z,79.26
2019-01-08T01:08:57.652Z,79.75
2019-01-08T01:11:26.559Z,80.20
2019-01-08T01:13:55.770Z,80.17
2019-01-08T01:16:24.968Z,80.92
2019-01-08T01:18:54.158Z,81.39
2019-01-08T01:21:23.354Z,81.36
2019-01-08T01:23:52.552Z,82.29
2019-01-08T01:26:21.750Z,82.48
2019-01-08T01:28:50.946Z,82.46
2019-01-08T01:31:19.812Z,82.18
2019-01-08T01:33:49.023Z,82.30
2019-01-08T01:36:18.245Z,82.41
2019-01-08T01:38:47.420Z,82.03
2019-01-08T01:41:16.347Z,82.05
2019-01-08T01:43:45.215Z,81.92
2019-01-08T01:46:14.386Z,81.65
2019-01-08T01:48:43.587Z,81.80
2019-01-08T01:51:12.496Z,81.68
2019-01-08T01:53:41.368Z,81.67
2019-01-08T01:56:10.270Z,81.68
2019-01-08T01:58:39.412Z,81.50
2019-01-08T02:01:08.653Z,81.07
2019-01-08T02:03:38.149Z,80.92
2019-01-08T02:06:07.343Z,80.77
2019-01-08T02:08:36.213Z,80.60
2019-01-08T02:11:05.112Z,80.75
2019-01-08T02:13:34.303Z,80.38
2019-01-08T02:16:03.188Z,80.46
2019-01-08T02:18:32.057Z,80.12
2019-01-08T02:21:01.190Z,79.86
2019-01-08T02:23:30.069Z,80.14
2019-01-08T02:25:58.937Z,79.89
2019-01-08T02:28:27.803Z,80.11
2019-01-08T02:30:56.659Z,80.07
2019-01-08T02:33:25.531Z,80.33
2019-01-08T02:35:54.393Z,80.25
2019-01-08T02:38:23.618Z,80.18
2019-01-08T02:40:52.485Z,80.12
2019-01-08T02:43:22.039Z,80.22
2019-01-08T02:45:50.913Z,80.01
2019-01-08T02:48:19.780Z,79.90
2019-01-08T02:50:48.661Z,79.90
2019-01-08T02:53:17.519Z,79.88
2019-01-08T02:55:46.372Z,79.91
2019-01-08T02:58:15.276Z,79.90
2019-01-08T03:00:44.156Z,80.07
2019-01-08T03:03:13.032Z,79.91
2019-01-08T03:05:42.204Z,79.66
2019-01-08T03:08:11.400Z,79.66
2019-01-08T03:10:40.596Z,80.01
2019-01-08T03:13:09.474Z,80.06
2019-01-08T03:15:38.332Z,80.03
2019-01-08T03:18:07.208Z,80.63
2019-01-08T03:20:36.369Z,80.72
2019-01-08T03:23:05.568Z,80.72
2019-01-08T03:25:34.434Z,81.01
2019-01-08T03:28:03.355Z,80.96
2019-01-08T03:30:32.254Z,81.04
2019-01-08T03:33:01.421Z,81.43
2019-01-08T03:35:30.610Z,81.69
2019-01-08T03:37:59.811Z,81.56
2019-01-08T03:40:29.006Z,81.58
2019-01-08T03:42:57.895Z,81.80
2019-01-08T03:45:26.769Z,81.35
2019-01-08T03:47:55.662Z,81.35
2019-01-08T03:50:24.526Z,82.08
2019-01-08T03:52:53.385Z,82.37
2019-01-08T03:55:22.242Z,82.44
2019-01-08T04:00:29.929Z,82.32
2019-01-08T04:02:59.151Z,81.53
2019-01-08T04:05:28.013Z,82.29
2019-01-08T04:07:57.240Z,82.36
2019-01-08T04:10:26.422Z,82.24
2019-01-08T04:12:55.317Z,82.24
2019-01-08T04:15:24.527Z,82.26
2019-01-08T04:17:53.692Z,82.80
2019-01-08T04:20:22.576Z,82.41
2019-01-08T04:22:51.691Z,82.86
2019-01-08T04:25:20.565Z,82.52
2019-01-08T04:27:49.420Z,82.08
2019-01-08T04:30:18.308Z,82.29
2019-01-08T04:32:47.862Z,82.23
2019-01-08T04:35:16.731Z,82.24
2019-01-08T04:37:45.948Z,82.69
2019-01-08T04:40:15.163Z,82.66
2019-01-08T04:42:44.029Z,82.37
2019-01-08T04:45:14.727Z,82.33
2019-01-08T04:47:41.780Z,82.29
2019-01-08T04:50:10.995Z,82.37
2019-01-08T04:52:40.202Z,81.83
2019-01-08T04:55:09.080Z,82.06
2019-01-08T04:57:38.300Z,81.93
2019-01-08T05:00:07.786Z,81.84
2019-01-08T05:02:36.655Z,81.83
2019-01-08T05:05:05.566Z,81.66
2019-01-08T05:07:34.433Z,81.21
2019-01-08T05:10:03.655Z,80.67
2019-01-08T05:12:32.518Z,81.06
2019-01-08T05:15:01.749Z,81.11
2019-01-08T05:17:30.617Z,81.44
2019-01-08T05:19:59.831Z,81.02
2019-01-08T05:22:28.995Z,80.97
2019-01-08T05:24:57.876Z,81.09
2019-01-08T05:27:27.100Z,80.92
2019-01-08T05:29:56.247Z,81.25
2019-01-08T05:32:25.386Z,80.81
2019-01-08T05:34:54.584Z,80.36
2019-01-08T05:37:23.808Z,80.30
2019-01-08T05:39:52.973Z,80.26
2019-01-08T05:42:22.122Z,80.12
2019-01-08T05:44:51.271Z,79.90
2019-01-08T05:47:20.145Z,79.64
2019-01-08T05:49:49.029Z,79.35
2019-01-08T05:52:17.898Z,79.41
2019-01-08T06:00:06.529Z,78.70
2019-01-08T06:02:35.755Z,78.64
2019-01-08T06:07:43.758Z,77.73
2019-01-08T06:10:12.782Z,77.54
2019-01-08T06:15:20.229Z,77.25
2019-01-08T06:20:27.940Z,76.36
2019-01-08T06:25:36.059Z,76.59
2019-01-08T06:28:04.942Z,76.66
2019-01-08T06:30:33.810Z,76.65
2019-01-08T06:33:02.661Z,76.38
2019-01-08T06:35:31.897Z,76.18
2019-01-08T06:38:00.746Z,76.36
2019-01-08T06:40:29.981Z,76.35
2019-01-08T06:42:59.252Z,76.55
2019-01-08T06:45:28.108Z,76.30
2019-01-08T06:47:57.325Z,76.08
2019-01-08T06:50:26.206Z,76.11
2019-01-08T06:52:55.320Z,75.93
2019-01-08T06:55:24.286Z,75.69
2019-01-08T06:57:53.505Z,76.18
2019-01-08T07:00:22.779Z,75.59
2019-01-08T07:02:51.913Z,75.38
2019-01-08T07:05:21.266Z,75.10
2019-01-08T07:07:50.495Z,74.86
2019-01-08T07:10:19.815Z,74.68
2019-01-08T07:12:48.668Z,74.39
2019-01-08T07:17:56.014Z,74.26
2019-01-08T07:20:25.170Z,74.62
2019-01-08T07:22:54.019Z,74.88
2019-01-08T07:25:23.136Z,73.32
2019-01-08T07:27:52.249Z,73.54
2019-01-08T07:30:21.118Z,73.44
2019-01-08T07:32:50.247Z,73.41
2019-01-08T07:35:19.428Z,73.55
2019-01-08T07:37:48.303Z,74.61
2019-01-08T07:40:17.179Z,75.80
2019-01-08T07:42:46.031Z,76.20
2019-01-08T07:45:15.194Z,76.47
2019-01-08T07:47:44.388Z,76.48
2019-01-08T07:50:13.584Z,76.51
2019-01-08T07:52:42.452Z,76.87
2019-01-08T07:55:11.596Z,76.93
2019-01-08T07:57:40.754Z,76.87
2019-01-08T08:00:09.654Z,77.04
2019-01-08T08:02:38.521Z,77.04
2019-01-08T08:05:07.740Z,77.28
2019-01-08T08:07:36.603Z,77.26
2019-01-08T08:10:06.399Z,77.65
2019-01-08T08:12:35.288Z,77.53
2019-01-08T08:15:04.296Z,77.58
2019-01-08T08:17:33.187Z,77.40
2019-01-08T08:20:02.048Z,78.15
2019-01-08T08:22:30.909Z,78.78
2019-01-08T08:25:00.100Z,79.23
2019-01-08T08:27:29.235Z,79.36
2019-01-08T08:29:58.107Z,79.88
2019-01-08T08:32:26.964Z,79.48
2019-01-08T08:34:55.836Z,79.69
2019-01-08T08:37:25.051Z,79.99
2019-01-08T08:39:53.919Z,79.96
2019-01-08T08:42:22.812Z,79.95
2019-01-08T08:44:51.673Z,79.86
2019-01-08T08:47:20.887Z,79.75
2019-01-08T08:49:49.758Z,79.60
2019-01-08T08:52:18.628Z,79.58
2019-01-08T08:54:47.496Z,79.49
2019-01-08T08:57:16.614Z,79.25
2019-01-08T08:59:46.089Z,78.95
2019-01-08T09:02:16.010Z,79.14
2019-01-08T09:04:44.130Z,79.48
2019-01-08T09:07:13.365Z,79.40
2019-01-08T09:09:42.502Z,79.35
2019-01-08T09:12:11.373Z,79.68
2019-01-08T09:14:40.222Z,79.72
2019-01-08T09:17:09.400Z,79.66
2019-01-08T09:19:38.267Z,79.85
2019-01-08T09:22:07.142Z,79.60
2019-01-08T09:24:35.996Z,79.48
2019-01-08T09:27:04.889Z,79.19
2019-01-08T09:29:34.055Z,79.09
2019-01-08T09:32:02.953Z,79.01
2019-01-08T09:34:31.833Z,78.89
2019-01-08T09:37:00.720Z,79.14
2019-01-08T09:39:29.888Z,78.84
2019-01-08T09:41:58.750Z,78.92
2019-01-08T09:44:27.601Z,78.94
2019-01-08T09:46:56.540Z,78.56
2019-01-08T09:49:26.200Z,78.20
2019-01-08T09:51:54.875Z,78.57
2019-01-08T09:54:23.741Z,78.79
2019-01-08T09:56:52.631Z,78.37
2019-01-08T09:59:21.498Z,78.15
2019-01-08T10:01:50.736Z,77.86
2019-01-08T10:04:19.935Z,77.65
2019-01-08T10:06:48.808Z,77.70
2019-01-08T10:09:17.667Z,77.17
2019-01-08T10:11:46.535Z,76.68
2019-01-08T10:14:15.725Z,76.08
2019-01-08T10:16:44.590Z,76.23
2019-01-08T10:19:13.450Z,75.93
2019-01-08T10:21:42.322Z,75.62
2019-01-08T10:24:11.205Z,75.51
2019-01-08T10:26:40.103Z,75.34
2019-01-08T10:29:08.966Z,75.07
2019-01-08T10:31:37.841Z,75.15
2019-01-08T10:34:06.693Z,74.97
2019-01-08T10:36:35.891Z,74.93
2019-01-08T10:39:06.758Z,75.29
2019-01-08T10:41:35.649Z,75.21
2019-01-08T10:44:04.812Z,75.07
2019-01-08T10:49:12.497Z,74.67
2019-01-08T10:51:41.714Z,74.63
2019-01-08T10:54:10.574Z,74.54
2019-01-08T10:56:39.444Z,74.72
2019-01-08T10:59:08.299Z,74.39
2019-01-08T11:01:40.645Z,74.44
2019-01-08T11:04:06.055Z,74.43
2019-01-08T11:06:34.930Z,74.12
2019-01-08T11:09:04.132Z,73.66
2019-01-08T11:14:11.511Z,74.01
2019-01-08T11:16:40.361Z,73.98
2019-01-08T11:19:09.220Z,73.79
2019-01-08T11:21:38.132Z,73.47
2019-01-08T11:24:06.979Z,73.80
2019-01-08T11:26:35.853Z,73.95
2019-01-08T11:29:04.983Z,74.08
2019-01-08T11:34:12.525Z,73.64
2019-01-08T11:39:20.459Z,73.60
2019-01-08T11:44:28.117Z,74.50
2019-01-08T11:46:57.001Z,74.77
2019-01-08T11:49:25.873Z,75.30
2019-01-08T11:51:55.071Z,75.33
2019-01-08T11:54:24.286Z,75.84
2019-01-08T11:56:53.157Z,75.54
2019-01-08T11:59:22.038Z,75.78
2019-01-08T12:01:57.167Z,75.78
2019-01-08T12:04:20.432Z,75.80
2019-01-08T12:06:49.320Z,75.79
2019-01-08T12:09:18.537Z,75.83
2019-01-08T12:11:47.419Z,76.23
2019-01-08T12:14:16.309Z,75.66
2019-01-08T12:16:45.225Z,75.50
2019-01-08T12:19:14.452Z,75.02
2019-01-08T12:21:43.316Z,74.71
2019-01-08T12:24:12.488Z,74.86
2019-01-08T12:26:41.356Z,75.45
2019-01-08T12:29:10.245Z,75.54
2019-01-08T12:31:39.128Z,75.45
2019-01-08T12:34:07.991Z,75.33
2019-01-08T12:36:36.859Z,75.07
2019-01-08T12:39:07.147Z,74.93
2019-01-08T12:41:36.361Z,75.05
2019-01-08T12:44:05.337Z,74.96
2019-01-08T12:49:12.708Z,75.68
2019-01-08T12:51:41.573Z,75.59
2019-01-08T12:54:10.720Z,75.65
2019-01-08T12:56:39.586Z,75.28
2019-01-08T12:59:08.938Z,76.00
2019-01-08T13:01:37.803Z,76.20
2019-01-08T13:04:06.994Z,75.96
2019-01-08T13:06:35.885Z,76.04
2019-01-08T13:09:05.876Z,76.33
2019-01-08T13:14:13.915Z,76.37
2019-01-08T13:16:44.007Z,76.22
2019-01-08T13:19:12.000Z,76.39
2019-01-08T13:21:40.957Z,76.36
2019-01-08T13:24:10.183Z,76.15
2019-01-08T13:26:39.352Z,76.36
2019-01-08T13:29:08.228Z,76.25
2019-01-08T13:31:37.362Z,76.44
2019-01-08T13:34:06.237Z,76.35
2019-01-08T13:39:13.608Z,75.78
2019-01-08T13:44:21.275Z,76.27
2019-01-08T13:46:50.123Z,76.17
2019-01-08T13:49:19.585Z,76.16
2019-01-08T13:51:48.449Z,76.05
2019-01-08T13:54:17.638Z,76.26
2019-01-08T13:56:46.495Z,76.19
2019-01-08T13:59:15.712Z,76.42
2019-01-08T14:01:44.575Z,76.51
2019-01-08T14:04:13.431Z,76.80
2019-01-08T14:06:42.286Z,76.91
2019-01-08T14:09:11.155Z,76.62
2019-01-08T14:11:40.004Z,76.52
2019-01-08T14:14:08.884Z,76.16
2019-01-08T14:16:38.051Z,75.48
2019-01-08T14:19:06.918Z,75.04
2019-01-08T14:21:35.790Z,74.72
2019-01-08T14:24:04.918Z,74.87
2019-01-08T14:26:33.772Z,74.67
2019-01-08T14:31:41.416Z,74.34
2019-01-08T14:36:49.120Z,74.19
2019-01-08T14:39:18.426Z,74.22
2019-01-08T14:41:47.278Z,74.09
2019-01-08T14:46:57.130Z,73.98
2019-01-08T14:49:26.064Z,74.57
2019-01-08T14:51:55.256Z,74.40
2019-01-08T14:54:24.528Z,73.84
2019-01-08T14:56:53.656Z,73.74
2019-01-08T14:59:22.845Z,73.59
2019-01-08T15:01:51.700Z,73.46
2019-01-08T15:04:20.913Z,72.87
2019-01-08T15:06:49.855Z,72.59
2019-01-08T15:09:21.205Z,72.38
2019-01-08T15:14:29.324Z,72.15
2019-01-08T15:16:58.206Z,72.19
2019-01-08T15:19:27.348Z,71.11
2019-01-08T15:21:56.872Z,70.97
2019-01-08T15:24:25.782Z,70.93
2019-01-08T15:26:54.689Z,70.14
2019-01-08T15:29:24.085Z,70.67
2019-01-08T15:34:32.306Z,70.53
2019-01-08T15:37:01.922Z,70.48
2019-01-08T15:42:09.672Z,70.44
2019-01-08T15:44:38.587Z,70.38
2019-01-08T19:57:00.643Z,78.75
2019-01-08T19:59:29.510Z,78.54
2019-01-08T20:01:58.381Z,78.03
2019-01-08T20:07:06.439Z,78.17
2019-01-08T20:12:14.368Z,77.65
2019-01-08T20:14:43.222Z,77.15
2019-01-08T20:17:12.098Z,76.95
2019-01-08T20:19:40.940Z,76.53
2019-01-08T20:22:10.681Z,76.09
2019-01-08T20:27:17.184Z,75.75
2019-01-08T20:29:46.394Z,75.88
2019-01-08T20:32:15.901Z,75.81
2019-01-08T20:34:45.094Z,76.25
2019-01-08T20:37:14.294Z,76.25
2019-01-08T20:39:43.497Z,76.06
2019-01-08T20:42:12.357Z,75.97
2019-01-08T20:44:41.544Z,76.09
2019-01-08T20:49:48.906Z,76.33
2019-01-08T20:52:17.781Z,76.46
2019-01-08T20:54:46.966Z,76.68
2019-01-08T20:57:15.832Z,76.94
2019-01-08T20:59:44.711Z,77.06
2019-01-08T21:07:31.997Z,77.75
2019-01-08T21:10:00.860Z,77.88
2019-01-08T21:12:30.066Z,77.84
2019-01-08T21:14:58.919Z,78.57
2019-01-08T21:17:27.800Z,79.11
2019-01-08T21:19:56.639Z,79.15
2019-01-08T21:22:25.760Z,79.55
2019-01-08T21:24:54.609Z,79.66
2019-01-08T21:27:23.963Z,79.45
2019-01-08T21:29:53.020Z,78.97
2019-01-08T21:35:00.387Z,79.32
2019-01-08T21:37:29.613Z,79.75
2019-01-08T21:39:58.478Z,79.96
2019-01-08T21:42:27.340Z,79.98
2019-01-08T21:44:56.209Z,79.91
2019-01-08T21:47:25.077Z,79.73
2019-01-08T21:49:53.939Z,79.13
2019-01-08T21:52:23.152Z,78.50
2019-01-08T21:54:51.991Z,78.66
2019-01-08T21:57:21.121Z,78.82
2019-01-08T21:59:50.313Z,78.55
2019-01-08T22:02:19.181Z,78.86
2019-01-08T22:04:52.901Z,78.71
2019-01-08T22:07:17.306Z,79.08
2019-01-08T22:09:46.493Z,79.71
2019-01-08T22:14:53.910Z,80.11
2019-01-08T22:17:23.297Z,80.02
2019-01-08T22:19:52.392Z,80.02
2019-01-08T22:22:21.250Z,80.23
2019-01-08T22:24:50.105Z,80.23
2019-01-08T22:27:18.957Z,80.02
2019-01-08T22:29:48.154Z,79.62
2019-01-08T22:32:17.360Z,79.73
2019-01-08T22:34:46.216Z,80.24
2019-01-08T22:37:15.440Z,80.72
2019-01-08T22:39:44.316Z,80.61
2019-01-08T22:42:13.177Z,80.64
2019-01-08T22:44:42.299Z,80.43
2019-01-08T22:47:11.173Z,80.72
2019-01-08T22:49:40.019Z,81.40
2019-01-08T22:52:09.480Z,81.82
2019-01-08T22:54:38.374Z,81.37
2019-01-08T22:59:46.291Z,80.93
2019-01-08T23:02:15.170Z,80.60
2019-01-08T23:04:44.367Z,79.83
2019-01-08T23:07:13.561Z,79.36
2019-01-08T23:09:43.326Z,78.44
2019-01-08T23:12:12.566Z,77.97
2019-01-08T23:14:41.441Z,77.94
2019-01-08T23:17:10.301Z,77.30
2019-01-08T23:19:39.152Z,77.53
2019-01-08T23:22:08.066Z,77.50
2019-01-08T23:24:36.932Z,77.25
2019-01-08T23:27:05.812Z,77.76
2019-01-08T23:29:35.001Z,77.86
2019-01-08T23:32:03.868Z,77.73
2019-01-08T23:34:32.708Z,77.96
2019-01-08T23:37:01.857Z,78.07
2019-01-08T23:39:30.972Z,77.58
2019-01-08T23:44:38.674Z,77.87
2019-01-08T23:47:07.544Z,77.85
2019-01-08T23:49:36.377Z,77.75
2019-01-08T23:52:17.769Z,77.99
2019-01-08T23:54:46.626Z,77.84
2019-01-08T23:57:16.271Z,77.53
2019-01-08T23:59:45.114Z,77.35
